createdAt,value
2022-11-09T00:01:42.205Z,30.40
2022-11-09T00:06:44.498Z,30.30
2022-11-09T00:11:46.810Z,29.67
2022-11-09T00:16:49.161Z,31.27
2022-11-09T00:21:51.388Z,32.20
2022-11-09T00:26:53.765Z,28.27
2022-11-09T00:31:56.013Z,28.97
2022-11-09T00:36:58.263Z,25.93
2022-11-09T00:42:00.492Z,25.60
2022-11-09T00:47:05.429Z,27.77
2022-11-09T00:52:07.679Z,24.73
2022-11-09T00:57:10.016Z,24.80
2022-11-09T01:02:12.858Z,23.23
2022-11-09T01:07:15.147Z,25.00
2022-11-09T01:12:17.479Z,23.63
2022-11-09T01:17:19.804Z,26.23
2022-11-09T01:22:22.895Z,28.37
2022-11-09T01:27:25.162Z,25.77
2022-11-09T01:32:27.581Z,22.90
2022-11-09T01:37:29.818Z,21.90
2022-11-09T01:42:37.099Z,21.13
2022-11-09T01:47:39.530Z,24.57
2022-11-09T01:52:46.430Z,20.63
2022-11-09T01:58:03.622Z,21.57
2022-11-09T02:03:14.713Z,20.13
2022-11-09T02:08:20.139Z,20.10
2022-11-09T02:13:25.925Z,20.60
2022-11-09T02:18:28.701Z,20.30
2022-11-09T02:23:31.045Z,22.13
2022-11-09T02:28:37.179Z,22.67
2022-11-09T02:33:51.554Z,22.03
2022-11-09T02:38:55.655Z,20.63
2022-11-09T02:44:01.209Z,25.87
2022-11-09T02:49:04.704Z,21.77
2022-11-09T02:54:07.144Z,22.07
2022-11-09T02:59:10.054Z,20.10
2022-11-09T03:04:13.184Z,19.43
2022-11-09T03:09:15.558Z,18.93
2022-11-09T03:14:18.043Z,19.00
2022-11-09T03:19:27.995Z,18.10
2022-11-09T03:24:30.320Z,18.07
2022-11-09T03:29:33.731Z,17.63
2022-11-09T03:34:37.541Z,16.60
2022-11-09T03:39:40.527Z,17.17
2022-11-09T03:44:42.939Z,17.50
2022-11-09T03:49:45.292Z,17.87
2022-11-09T03:54:47.599Z,17.87
2022-11-09T03:59:50.002Z,18.23
2022-11-09T04:04:52.393Z,19.17
2022-11-09T04:09:54.730Z,18.77
2022-11-09T04:14:57.091Z,18.03
2022-11-09T04:19:59.544Z,17.10
2022-11-09T04:25:01.931Z,18.23
2022-11-09T04:30:04.647Z,17.07
2022-11-09T04:35:07.643Z,17.90
2022-11-09T04:40:10.857Z,18.70
2022-11-09T04:45:13.246Z,17.40
2022-11-09T04:50:15.850Z,16.97
2022-11-09T04:55:18.277Z,17.33
2022-11-09T05:00:20.702Z,16.37
2022-11-09T05:05:23.165Z,18.80
2022-11-09T05:10:25.666Z,18.37
2022-11-09T05:15:28.529Z,18.63
2022-11-09T05:20:30.931Z,18.67
2022-11-09T05:25:33.618Z,18.83
2022-11-09T05:30:35.955Z,18.37
2022-11-09T05:35:38.274Z,17.60
2022-11-09T05:40:40.820Z,19.70
2022-11-09T05:45:46.183Z,22.20
2022-11-09T05:50:48.908Z,19.20
2022-11-09T05:56:01.038Z,27.83
2022-11-09T06:01:24.112Z,20.57
2022-11-09T06:06:28.021Z,20.20
2022-11-09T06:11:30.462Z,19.50
2022-11-09T06:16:32.762Z,18.40
2022-11-09T06:21:35.145Z,20.23
2022-11-09T06:26:37.661Z,18.87
2022-11-09T06:31:40.000Z,17.83
2022-11-09T06:36:42.661Z,17.87
2022-11-09T06:41:47.571Z,15.77
2022-11-09T06:46:50.168Z,17.77
2022-11-09T06:51:52.718Z,17.90
2022-11-09T06:56:55.472Z,17.17
2022-11-09T07:02:01.457Z,17.77
2022-11-09T07:07:04.357Z,17.53
2022-11-09T07:12:06.879Z,17.57
2022-11-09T07:17:09.232Z,21.57
2022-11-09T07:22:11.606Z,26.93
2022-11-09T07:27:14.029Z,21.23
2022-11-09T07:32:16.574Z,19.80
2022-11-09T07:37:19.088Z,19.60
2022-11-09T07:42:21.602Z,20.63
2022-11-09T07:47:26.676Z,33.23
2022-11-09T07:52:29.159Z,24.07
2022-11-09T07:57:31.627Z,19.47
2022-11-09T08:02:39.184Z,20.47
2022-11-09T08:07:41.597Z,20.73
2022-11-09T08:12:43.981Z,19.83
2022-11-09T08:17:46.274Z,19.30
2022-11-09T08:22:48.593Z,20.17
2022-11-09T08:27:55.658Z,19.10
2022-11-09T08:32:59.885Z,18.67
2022-11-09T08:38:04.294Z,19.53
2022-11-09T08:43:08.567Z,18.00
2022-11-09T08:48:11.805Z,19.40
2022-11-09T08:53:14.196Z,17.43
2022-11-09T08:58:18.100Z,19.13
2022-11-09T09:03:20.651Z,17.33
2022-11-09T09:08:23.475Z,18.53
2022-11-09T09:13:26.202Z,18.57
2022-11-09T09:18:28.531Z,48.80
2022-11-09T09:23:30.950Z,28.43
2022-11-09T09:34:44.083Z,19.00
2022-11-09T09:40:27.266Z,18.80
2022-11-09T09:45:34.714Z,51.50
2022-11-09T09:50:46.123Z,74.20
2022-11-09T09:55:56.339Z,18.43
2022-11-09T10:01:19.920Z,21.30
2022-11-09T10:06:35.050Z,56.50
2022-11-09T10:12:00.730Z,19.17
2022-11-09T10:17:14.602Z,21.17
2022-11-09T10:22:45.738Z,16.73
2022-11-09T10:27:54.112Z,20.00
2022-11-09T10:33:21.421Z,17.37
2022-11-09T10:38:40.295Z,22.77
2022-11-09T10:44:01.290Z,17.10
2022-11-09T10:49:22.261Z,16.77
2022-11-09T10:54:43.196Z,46.03
2022-11-09T11:00:06.336Z,22.57
2022-11-09T11:05:29.458Z,17.23
2022-11-09T11:10:58.524Z,15.50
2022-11-09T11:16:32.485Z,14.67
2022-11-09T11:22:27.403Z,17.23
2022-11-09T11:28:02.713Z,16.57
2022-11-09T11:33:24.142Z,15.80
2022-11-09T11:39:04.266Z,15.90
2022-11-09T11:44:56.725Z,13.10
2022-11-09T11:50:46.790Z,14.30
2022-11-09T11:56:07.733Z,12.90
2022-11-09T12:01:31.453Z,13.70
2022-11-09T12:07:03.748Z,19.03
2022-11-09T12:12:34.252Z,14.30
2022-11-09T12:18:14.519Z,14.30
2022-11-09T12:24:14.453Z,14.57
2022-11-09T12:29:46.926Z,14.17
2022-11-09T12:35:40.968Z,14.03
2022-11-09T12:41:08.209Z,13.37
2022-11-09T12:46:34.723Z,17.73
2022-11-09T12:51:58.857Z,13.47
2022-11-09T12:57:26.532Z,14.10
2022-11-09T13:02:56.813Z,13.57
2022-11-09T13:08:30.583Z,14.97
2022-11-09T13:13:51.624Z,13.33
2022-11-09T13:19:32.387Z,14.70
2022-11-09T13:25:01.822Z,14.93
2022-11-09T13:30:26.232Z,14.97
2022-11-09T13:35:50.124Z,16.17
2022-11-09T13:47:45.615Z,23.27
2022-11-09T13:53:31.143Z,16.50
2022-11-09T13:58:55.501Z,20.33
2022-11-09T14:04:38.505Z,28.27
2022-11-09T14:10:30.427Z,19.73
2022-11-09T14:15:55.567Z,21.77
2022-11-09T14:21:48.189Z,19.57
2022-11-09T14:27:09.116Z,18.10
2022-11-09T14:32:34.833Z,19.30
2022-11-09T14:37:58.147Z,16.50
2022-11-09T14:43:29.826Z,19.10
2022-11-09T14:48:53.601Z,17.13
2022-11-09T14:54:19.089Z,17.07
2022-11-09T14:59:43.808Z,16.47
2022-11-09T15:05:06.893Z,18.43
2022-11-09T15:10:30.632Z,15.33
2022-11-09T15:15:53.946Z,26.87
2022-11-09T15:21:23.823Z,24.03
2022-11-09T15:26:50.097Z,34.87
2022-11-09T15:32:11.005Z,25.67
2022-11-09T15:37:48.658Z,59.07
2022-11-09T15:43:09.545Z,31.53
2022-11-09T15:48:30.846Z,32.50
2022-11-09T15:53:51.703Z,31.80
2022-11-09T15:59:22.740Z,38.63
2022-11-09T16:04:43.530Z,76.80
2022-11-09T16:10:05.066Z,51.67
2022-11-09T16:15:26.693Z,45.17
2022-11-09T16:20:47.409Z,55.30
2022-11-09T16:26:11.525Z,65.63
2022-11-09T16:31:50.942Z,49.97
2022-11-09T16:37:12.552Z,57.77
2022-11-09T16:42:34.225Z,57.03
2022-11-09T16:47:56.894Z,78.87
2022-11-09T16:53:17.491Z,72.23
2022-11-09T16:58:38.321Z,58.30
2022-11-09T17:03:59.280Z,74.27
2022-11-09T17:09:20.873Z,80.13
2022-11-09T17:14:41.686Z,122.93
2022-11-09T17:20:05.064Z,110.60
2022-11-09T17:25:25.653Z,132.40
2022-11-09T17:30:46.507Z,76.27
2022-11-09T17:36:09.323Z,62.83
2022-11-09T17:41:30.512Z,72.03
2022-11-09T17:46:51.530Z,40.93
2022-11-09T17:52:12.049Z,53.37
2022-11-09T17:57:33.409Z,42.00
2022-11-09T18:02:57.089Z,35.43
2022-11-09T18:08:18.223Z,55.17
2022-11-09T18:13:40.280Z,44.17
2022-11-09T18:19:03.904Z,78.73
2022-11-09T18:24:24.779Z,54.53
2022-11-09T18:29:45.545Z,118.93
2022-11-09T18:35:07.334Z,77.23
2022-11-09T18:40:27.904Z,52.83
2022-11-09T18:45:57.223Z,37.17
2022-11-09T18:51:18.772Z,37.67
2022-11-09T18:56:39.876Z,37.90
2022-11-09T19:02:00.733Z,39.40
2022-11-09T19:07:21.680Z,40.63
2022-11-09T19:12:42.586Z,36.37
2022-11-09T19:18:03.688Z,39.47
2022-11-09T19:23:28.482Z,34.03
2022-11-09T19:28:54.034Z,34.90
2022-11-09T19:34:17.723Z,39.50
2022-11-09T19:39:43.124Z,31.67
2022-11-09T19:45:05.153Z,32.90
2022-11-09T19:50:25.705Z,31.00
2022-11-09T19:55:46.750Z,32.30
2022-11-09T20:01:09.806Z,36.07
2022-11-09T20:06:31.453Z,36.77
2022-11-09T20:12:10.876Z,28.67
2022-11-09T20:17:31.850Z,31.07
2022-11-09T20:22:52.827Z,31.20
2022-11-09T20:28:13.798Z,33.77
2022-11-09T20:33:34.595Z,37.20
2022-11-09T20:38:55.372Z,35.67
2022-11-09T20:44:16.234Z,35.87
2022-11-09T20:49:37.185Z,32.00
2022-11-09T20:54:58.221Z,31.60
2022-11-09T21:00:24.063Z,31.43
2022-11-09T21:05:49.397Z,30.23
2022-11-09T21:11:13.067Z,33.10
2022-11-09T21:16:33.665Z,32.00
2022-11-09T21:21:54.383Z,31.57
2022-11-09T21:33:19.648Z,31.47
2022-11-09T21:38:40.850Z,31.67
2022-11-09T21:44:01.874Z,31.63
2022-11-09T21:49:22.745Z,29.93
2022-11-09T21:54:43.483Z,30.83
2022-11-09T22:00:05.074Z,31.50
2022-11-09T22:05:25.909Z,30.53
2022-11-09T22:10:46.785Z,34.60
2022-11-09T22:16:08.066Z,32.83
2022-11-09T22:21:29.021Z,31.60
2022-11-09T22:26:50.056Z,31.40
2022-11-09T22:32:10.930Z,31.00
2022-11-09T22:37:31.904Z,33.57
2022-11-09T22:42:56.626Z,30.47
2022-11-09T22:48:17.631Z,33.27
2022-11-09T22:53:38.803Z,32.30
2022-11-09T22:58:59.499Z,31.20
2022-11-09T23:04:20.576Z,31.13
2022-11-09T23:09:41.453Z,30.37
2022-11-09T23:15:05.789Z,30.23
2022-11-09T23:20:28.885Z,28.87
2022-11-09T23:25:56.842Z,28.80
2022-11-09T23:31:19.617Z,26.80
2022-11-09T23:36:40.221Z,27.37
2022-11-09T23:42:00.996Z,27.57
2022-11-09T23:47:21.948Z,26.83
2022-11-09T23:52:42.957Z,26.43
2022-11-09T23:58:04.905Z,25.97
